Terminal Aerodrome Forecast
Issued by NWS Blacksburg, VA

Home | Current Version | Previous Version | Text Only | Print | Product List | Glossary On
Versions: 1 2 3 4 5 6 7 8 9 10 11 12 13 14 15 16 17 18
000
FTUS41 KRNK 221720
TAFBLF
TAF
KBLF 221720Z 2218/2318 27006KT P6SM VCTS SCT030 BKN050CB
      TEMPO 2218/2221 2SM TSRA BR OVC030CB
     FM230100 25004KT P6SM VCSH OVC070
     FM230500 25004KT 4SM BR BKN050
     FM231400 28005KT P6SM BKN015=

USA.gov is the U.S. government's official web portal to all federal, state and local government web resources and services.